Time;durP1;ratioP1;P1;durP2;ratioP2;P2;SDS_P1;SDS_P2;PMS_P1;PMS_P2;Temp;Humidity;BMP_temperature;BMP_pressure;BME280_temperature;BME280_humidity;BME280_pressure;Samples;Min_cycle;Max_cycle;Signal;HPM_P1;HPM_P2
2023/08/19 00:00:09;;;;;;;31.80;28.45;;;;;;;-141.84;100.00;20506.94;5044138;28;20235;-62
2023/08/19 00:02:38;;;;;;;32.63;29.33;;;;;;;-141.84;100.00;20498.81;5044010;28;20220;-60
2023/08/19 00:05:09;;;;;;;31.77;28.50;;;;;;;-141.84;100.00;20500.84;5044146;28;20193;-60
2023/08/19 00:07:38;;;;;;;30.75;27.63;;;;;;;-141.84;100.00;20470.34;5036560;28;20248;-60
2023/08/19 00:10:08;;;;;;;30.67;27.35;;;;;;;-141.84;100.00;20433.75;5043419;28;20261;-62
2023/08/19 00:12:36;;;;;;;32.15;28.67;;;;;;;-141.84;100.00;20452.06;5044313;28;20233;-59
2023/08/19 00:15:06;;;;;;;31.88;28.45;;;;;;;-141.84;100.00;20464.25;5043693;28;20229;-60
2023/08/19 00:17:34;;;;;;;31.23;28.00;;;;;;;-141.84;100.00;20411.41;5035955;28;20224;-59
2023/08/19 00:20:05;;;;;;;32.35;28.92;;;;;;;-141.84;100.00;20407.34;5057316;28;20205;-60
2023/08/19 00:22:36;;;;;;;31.40;28.27;;;;;;;-141.84;100.00;20403.25;5064378;28;20679;-61
2023/08/19 00:25:05;;;;;;;31.45;28.15;;;;;;;-141.84;100.00;20431.72;5050706;28;20669;-61
2023/08/19 00:27:34;;;;;;;32.83;29.25;;;;;;;-141.84;100.00;20407.34;5036042;28;20253;-59
2023/08/19 00:30:03;;;;;;;31.42;28.23;;;;;;;-141.84;100.00;20405.31;5043760;28;20229;-58
2023/08/19 00:32:32;;;;;;;33.75;30.42;;;;;;;-141.84;100.00;20405.31;5043435;28;20283;-60
2023/08/19 00:35:00;;;;;;;31.92;28.77;;;;;;;-141.84;100.00;20393.09;5043472;28;20723;-60
2023/08/19 00:37:30;;;;;;;31.48;28.38;;;;;;;-141.84;100.00;20362.63;5035999;28;20255;-62
2023/08/19 00:40:01;;;;;;;31.35;28.05;;;;;;;-141.84;100.00;20417.50;5043443;28;20750;-60
2023/08/19 00:42:29;;;;;;;30.63;27.45;;;;;;;-141.84;100.00;20403.25;5023854;28;20246;-61
2023/08/19 00:44:58;;;;;;;31.85;28.70;;;;;;;-141.84;100.00;20403.25;5023312;28;20222;-60
2023/08/19 00:47:27;;;;;;;32.42;29.02;;;;;;;-141.84;100.00;20372.78;5034512;28;20232;-61
2023/08/19 00:49:56;;;;;;;32.05;28.75;;;;;;;-141.84;100.00;20387.00;5043624;28;20580;-60
2023/08/19 00:52:24;;;;;;;33.75;30.40;;;;;;;-141.84;100.00;20378.88;5023729;28;20704;-60
2023/08/19 00:54:53;;;;;;;34.20;30.60;;;;;;;-141.84;100.00;20443.91;5049083;28;20232;-59
2023/08/19 00:57:24;;;;;;;33.08;29.77;;;;;;;-141.84;100.00;20403.25;5061642;28;20252;-60
2023/08/19 00:59:53;;;;;;;32.28;28.60;;;;;;;-141.84;100.00;20447.97;5061934;28;20230;-61
2023/08/19 01:02:22;;;;;;;30.80;27.55;;;;;;;-141.84;100.00;20472.38;5051658;28;20715;-61
2023/08/19 01:04:50;;;;;;;30.33;27.38;;;;;;;-141.84;100.00;20462.22;5047512;28;20223;-60
2023/08/19 01:07:28;;;;;;;29.98;27.05;;;;;;;-141.84;100.00;20435.78;5054086;28;20316;-60
2023/08/19 01:10:04;;;;;;;30.58;27.58;;;;;;;-141.84;100.00;20447.97;5042890;28;20331;-60
2023/08/19 01:12:40;;;;;;;31.05;27.73;;;;;;;-141.84;100.00;20393.09;5023254;28;20235;-62
2023/08/19 01:15:15;;;;;;;32.95;27.77;;;;;;;-141.84;100.00;20411.41;5029036;28;20715;-60
2023/08/19 01:17:45;;;;;;;31.73;28.40;;;;;;;-141.84;100.00;20407.34;5035114;28;20228;-60
2023/08/19 01:20:14;;;;;;;32.25;28.92;;;;;;;-141.84;100.00;20421.56;5038958;28;20301;-61
2023/08/19 01:22:50;;;;;;;31.65;28.35;;;;;;;-141.84;100.00;20395.13;5023373;28;20292;-61
2023/08/19 01:25:22;;;;;;;30.60;27.50;;;;;;;-141.84;100.00;20427.66;5022623;28;20241;-60
2023/08/19 01:27:51;;;;;;;30.83;27.73;;;;;;;-141.84;100.00;20378.88;5019086;28;20529;-61
2023/08/19 01:30:19;;;;;;;31.23;28.00;;;;;;;-141.84;100.00;20409.38;5031277;28;20276;-60
2023/08/19 01:32:48;;;;;;;30.90;27.90;;;;;;;-141.84;100.00;20378.88;5042845;28;20229;-59
2023/08/19 01:35:18;;;;;;;32.72;29.50;;;;;;;-141.84;100.00;20403.25;5042536;28;20650;-59
2023/08/19 01:37:53;;;;;;;31.75;28.50;;;;;;;-141.84;100.00;20395.13;5035034;28;20750;-60
2023/08/19 01:40:24;;;;;;;31.45;28.15;;;;;;;-141.84;100.00;20389.03;5042436;28;20759;-61
2023/08/19 01:42:54;;;;;;;29.77;26.70;;;;;;;-141.84;100.00;20423.59;5042336;28;20268;-60
2023/08/19 01:45:23;;;;;;;30.58;27.45;;;;;;;-141.84;100.00;20358.56;5039497;28;20229;-60
2023/08/19 01:47:53;;;;;;;30.10;27.13;;;;;;;-141.84;100.00;20338.22;5042249;28;20290;-59
2023/08/19 01:50:22;;;;;;;29.65;26.83;;;;;;;-141.84;100.00;20342.28;5042921;28;20233;-60
2023/08/19 01:52:51;;;;;;;30.83;27.73;;;;;;;-141.84;100.00;20346.34;5042425;28;20304;-61
2023/08/19 01:55:20;;;;;;;32.05;28.88;;;;;;;-141.84;100.00;20319.94;5055644;28;20259;-61
2023/08/19 01:57:50;;;;;;;31.55;28.35;;;;;;;-141.84;100.00;20330.09;5057172;28;20232;-60
2023/08/19 02:00:18;;;;;;;31.85;28.60;;;;;;;-141.84;100.00;20307.72;5038975;28;20235;-60
2023/08/19 02:02:47;;;;;;;30.52;27.55;;;;;;;-141.84;100.00;20350.41;5029062;28;20304;-61
2023/08/19 02:05:15;;;;;;;31.88;28.48;;;;;;;-141.84;100.00;20313.84;5042090;28;20618;-59
2023/08/19 02:07:44;;;;;;;31.08;27.77;;;;;;;-141.84;100.00;20309.75;5034265;28;20581;-61
2023/08/19 02:10:12;;;;;;;29.50;26.63;;;;;;;-141.84;100.00;20287.41;5041447;28;20268;-62
2023/08/19 02:12:41;;;;;;;30.85;27.65;;;;;;;-141.84;100.00;20289.44;5055868;28;20231;-60
2023/08/19 02:15:11;;;;;;;30.60;27.52;;;;;;;-141.84;100.00;20269.13;5060671;28;20232;-59
2023/08/19 02:17:39;;;;;;;30.58;27.45;;;;;;;-141.84;100.00;20273.19;5020589;28;20255;-61
2023/08/19 02:20:09;;;;;;;30.02;27.02;;;;;;;-141.84;100.00;20273.19;5022312;28;20649;-59
2023/08/19 02:22:39;;;;;;;30.15;27.15;;;;;;;-141.84;100.00;20273.19;5022414;28;20241;-62
2023/08/19 02:25:08;;;;;;;30.05;27.13;;;;;;;-141.84;100.00;20305.69;5022098;28;20779;-61
2023/08/19 02:27:38;;;;;;;30.30;27.08;;;;;;;-141.84;100.00;20273.19;5013816;28;20234;-60
2023/08/19 02:30:10;;;;;;;30.90;27.92;;;;;;;-141.84;100.00;20291.47;5028886;28;20711;-61
2023/08/19 02:32:41;;;;;;;28.63;25.55;;;;;;;-141.84;100.00;20295.53;5041643;28;20229;-60
2023/08/19 02:35:10;;;;;;;29.88;26.98;;;;;;;-141.84;100.00;20267.09;5041914;28;20754;-61
2023/08/19 02:37:39;;;;;;;29.02;26.23;;;;;;;-141.84;100.00;20269.13;5033920;28;20365;-60
2023/08/19 02:40:10;;;;;;;27.90;24.88;;;;;;;-141.84;100.00;20279.28;5041562;28;20316;-61
2023/08/19 02:42:39;;;;;;;26.17;23.67;;;;;;;-141.84;100.00;20285.38;5041590;28;20233;-60
2023/08/19 02:45:09;;;;;;;27.67;24.75;;;;;;;-141.84;100.00;20311.78;5041926;28;20240;-60
2023/08/19 02:47:37;;;;;;;25.83;23.20;;;;;;;-141.84;100.00;20295.53;5033892;28;20659;-59
2023/08/19 02:50:08;;;;;;;26.45;23.85;;;;;;;-141.84;100.00;20307.72;5041317;28;20209;-60
2023/08/19 02:52:37;;;;;;;25.98;23.38;;;;;;;-141.84;100.00;20317.91;5042581;28;20245;-60
2023/08/19 02:55:06;;;;;;;24.92;22.52;;;;;;;-141.84;100.00;20313.84;5053431;28;20220;-62
2023/08/19 02:57:35;;;;;;;24.65;22.20;;;;;;;-141.84;100.00;20336.19;5014030;28;20234;-61
2023/08/19 03:00:04;;;;;;;24.98;22.35;;;;;;;-141.84;100.00;20305.69;5032299;28;20257;-60
2023/08/19 03:02:32;;;;;;;26.00;23.45;;;;;;;-141.84;100.00;20303.66;5041248;28;20238;-59
2023/08/19 03:05:01;;;;;;;26.05;23.35;;;;;;;-141.84;100.00;20342.28;5041888;28;20478;-59
2023/08/19 03:07:31;;;;;;;24.58;22.27;;;;;;;-141.84;100.00;20301.63;5036529;28;20293;-61
2023/08/19 03:10:00;;;;;;;24.80;22.25;;;;;;;-141.84;100.00;20273.19;5045451;28;20232;-61
2023/08/19 03:12:28;;;;;;;23.88;21.67;;;;;;;-141.84;100.00;20297.56;5041392;28;20265;-59
2023/08/19 03:14:57;;;;;;;25.85;22.27;;;;;;;-141.84;100.00;20317.91;5041696;28;20318;-60
2023/08/19 03:17:25;;;;;;;23.50;21.27;;;;;;;-141.84;100.00;20285.38;5033713;28;20316;-59
2023/08/19 03:19:54;;;;;;;25.30;22.67;;;;;;;-141.84;100.00;20285.38;5041601;28;20205;-59
2023/08/19 03:22:22;;;;;;;23.20;21.10;;;;;;;-141.84;99.88;20309.75;5041461;28;20253;-62
2023/08/19 03:24:53;;;;;;;23.35;21.15;;;;;;;-141.84;100.00;20293.50;5044902;28;20321;-61
2023/08/19 03:27:21;;;;;;;23.52;21.30;;;;;;;-141.84;100.00;20277.25;5044818;28;20248;-61
2023/08/19 03:29:50;;;;;;;24.00;21.67;;;;;;;-141.84;100.00;20303.66;5041544;28;20321;-60
2023/08/19 03:32:18;;;;;;;23.67;21.38;;;;;;;-141.84;100.00;20285.38;5044981;28;20256;-59
2023/08/19 03:34:46;;;;;;;23.38;21.17;;;;;;;-141.84;100.00;20271.16;5045340;28;20279;-60
2023/08/19 03:37:15;;;;;;;23.90;21.60;;;;;;;-141.84;100.00;20265.03;5044541;28;20229;-61
2023/08/19 03:39:43;;;;;;;24.30;21.73;;;;;;;-141.84;100.00;20238.63;5036214;28;20321;-60
2023/08/19 03:42:13;;;;;;;23.67;21.33;;;;;;;-141.84;100.00;20285.38;5044684;28;20256;-61
2023/08/19 03:44:42;;;;;;;23.40;21.17;;;;;;;-141.84;99.88;20297.56;5044396;28;20304;-61
2023/08/19 03:47:12;;;;;;;23.60;21.17;;;;;;;-141.84;99.40;20307.72;5044593;28;20263;-60
2023/08/19 03:49:40;;;;;;;24.30;21.75;;;;;;;-141.84;98.02;20415.47;5036938;28;20287;-60
2023/08/19 03:52:09;;;;;;;23.75;21.25;;;;;;;-141.84;96.75;20382.94;5044075;28;20271;-60
2023/08/19 03:54:38;;;;;;;21.90;19.80;;;;;;;-141.84;97.65;20297.56;5052106;28;20603;-59
2023/08/19 03:57:06;;;;;;;21.25;19.33;;;;;;;-141.84;98.11;20317.91;5047109;28;20253;-60
2023/08/19 03:59:36;;;;;;;23.10;20.65;;;;;;;-141.84;98.97;20309.75;5036252;28;20300;-60
2023/08/19 04:02:05;;;;;;;21.98;19.77;;;;;;;-141.84;99.34;20319.94;5044038;28;20711;-61
2023/08/19 04:04:37;;;;;;;22.90;20.73;;;;;;;-141.84;99.54;20271.16;5054021;28;20266;-61
2023/08/19 04:07:05;;;;;;;23.27;20.98;;;;;;;-141.84;99.58;20293.50;5064104;28;20260;-58
2023/08/19 04:09:34;;;;;;;22.77;20.40;;;;;;;-141.84;99.86;20295.53;5043931;28;20304;-61
2023/08/19 04:12:02;;;;;;;22.88;20.48;;;;;;;-141.84;99.80;20281.31;5043809;28;20256;-60
2023/08/19 04:14:31;;;;;;;22.90;20.60;;;;;;;-141.84;99.75;20273.19;5044065;28;20279;-60
2023/08/19 04:17:01;;;;;;;22.98;20.88;;;;;;;-141.84;99.87;20295.53;5043687;28;20296;-59
2023/08/19 04:19:30;;;;;;;22.25;20.15;;;;;;;-141.84;100.00;20291.47;5036618;28;20209;-59
2023/08/19 04:21:59;;;;;;;23.10;20.80;;;;;;;-141.84;99.80;20260.97;5043743;28;20386;-60
2023/08/19 04:24:27;;;;;;;24.67;22.27;;;;;;;-141.84;99.84;20291.47;5043749;28;20233;-60
2023/08/19 04:26:56;;;;;;;23.38;20.90;;;;;;;-141.84;99.12;20291.47;5043800;28;20232;-60
2023/08/19 04:29:24;;;;;;;22.45;20.23;;;;;;;-141.84;99.09;20297.56;5035343;28;20287;-59
2023/08/19 04:31:53;;;;;;;21.38;19.17;;;;;;;-141.84;99.34;20289.44;5043485;28;20209;-60
2023/08/19 04:34:23;;;;;;;23.00;20.75;;;;;;;-141.84;99.05;20332.13;5043578;28;20232;-61
2023/08/19 04:36:51;;;;;;;22.70;20.50;;;;;;;-141.84;98.91;20342.28;5043756;28;20233;-62
2023/08/19 04:39:20;;;;;;;22.45;20.25;;;;;;;-141.84;97.47;20348.38;5043391;28;20298;-60
2023/08/19 04:41:49;;;;;;;22.17;20.00;;;;;;;-141.84;96.82;20399.19;5042543;28;20240;-60
2023/08/19 04:44:18;;;;;;;22.02;19.92;;;;;;;-141.84;95.92;20393.09;5043045;28;20229;-60
2023/08/19 04:46:47;;;;;;;22.83;20.52;;;;;;;-141.84;95.79;20429.69;5043665;28;20216;-61
2023/08/19 04:49:15;;;;;;;21.17;19.08;;;;;;;-141.84;95.03;20452.06;5042775;28;20229;-60
2023/08/19 04:51:45;;;;;;;19.65;17.85;;;;;;;-141.84;94.61;20452.06;5035665;28;25021;-59
2023/08/19 04:54:13;;;;;;;19.88;18.08;;;;;;;-141.84;93.65;20484.56;5047485;28;20265;-59
2023/08/19 04:56:42;;;;;;;19.90;17.90;;;;;;;-141.84;93.06;20490.66;5062859;28;20312;-60
2023/08/19 04:59:10;;;;;;;18.83;17.17;;;;;;;-141.84;92.29;20496.78;5062767;28;20232;-60
2023/08/19 05:01:39;;;;;;;18.42;16.65;;;;;;;-141.84;91.80;20525.22;5050452;28;20284;-60
2023/08/19 05:04:07;;;;;;;17.70;16.20;;;;;;;-141.84;91.96;20492.72;5043170;28;20229;-61
2023/08/19 05:06:36;;;;;;;16.20;14.70;;;;;;;-141.84;92.15;20502.88;5043146;28;20233;-60
2023/08/19 05:09:06;;;;;;;17.10;15.40;;;;;;;-141.84;92.12;20511.00;5042565;28;20714;-60
2023/08/19 05:11:35;;;;;;;18.17;16.38;;;;;;;-141.84;91.87;20547.59;5034812;28;20239;-60
2023/08/19 05:14:03;;;;;;;18.75;16.55;;;;;;;-141.84;91.47;20531.31;5042697;28;20233;-60
2023/08/19 05:16:32;;;;;;;18.70;17.00;;;;;;;-141.84;90.23;20604.50;5043307;28;20298;-60
2023/08/19 05:19:15;;;;;;;17.92;16.35;;;;;;;-141.84;89.34;20624.84;5043003;28;20229;-59
2023/08/19 05:21:44;;;;;;;17.88;16.13;;;;;;;-141.84;88.36;20651.25;5035074;28;20964;-60
2023/08/19 05:24:15;;;;;;;16.85;15.35;;;;;;;-141.84;87.87;20673.63;5042461;28;20798;-59
2023/08/19 05:26:44;;;;;;;15.73;14.27;;;;;;;-141.84;87.56;20659.38;5042821;28;20272;-60
2023/08/19 05:29:13;;;;;;;17.20;15.75;;;;;;;-141.84;87.25;20673.63;5042166;28;20304;-61
2023/08/19 05:31:42;;;;;;;16.23;14.73;;;;;;;-141.84;86.43;20659.38;5035003;28;20705;-60
2023/08/19 05:34:10;;;;;;;15.95;14.45;;;;;;;-141.84;86.37;20712.25;5042661;28;20670;-60
2023/08/19 05:36:39;;;;;;;14.68;13.30;;;;;;;-141.84;85.85;20732.56;5042188;28;20282;-60
2023/08/19 05:39:07;;;;;;;17.75;15.95;;;;;;;-141.84;84.83;20748.84;5042677;28;20342;-60
2023/08/19 05:41:37;;;;;;;17.52;15.82;;;;;;;-141.84;83.50;20779.31;5034403;28;20311;-60
2023/08/19 05:44:06;;;;;;;17.27;15.65;;;;;;;-141.84;82.11;20858.59;5042040;28;20313;-60
2023/08/19 05:46:34;;;;;;;16.92;15.27;;;;;;;-141.84;81.08;20878.94;5041774;28;20297;-59
2023/08/19 05:49:03;;;;;;;15.48;14.07;;;;;;;-141.84;80.90;20878.94;5042393;28;20311;-60
2023/08/19 05:51:32;;;;;;;14.90;13.60;;;;;;;-141.84;80.90;20887.06;5034566;28;20225;-61
2023/08/19 05:54:02;;;;;;;14.73;13.38;;;;;;;-141.84;80.98;20872.84;5044955;28;20282;-60
2023/08/19 05:56:30;;;;;;;14.60;13.30;;;;;;;-141.84;80.55;20899.28;5062358;28;20220;-60
2023/08/19 05:59:00;;;;;;;15.70;14.18;;;;;;;-141.84;79.82;20915.53;5062229;28;20305;-59
2023/08/19 06:01:29;;;;;;;16.98;15.23;;;;;;;-141.84;78.96;20966.34;5050588;28;20583;-62
2023/08/19 06:03:57;;;;;;;16.45;15.02;;;;;;;-141.84;78.90;20972.47;5042206;28;20233;-60
2023/08/19 06:06:26;;;;;;;14.90;13.52;;;;;;;-141.84;78.50;20984.66;5041978;28;20320;-61
2023/08/19 06:08:55;;;;;;;15.45;14.05;;;;;;;-141.84;76.12;21098.50;5041738;28;20225;-61
2023/08/19 06:11:23;;;;;;;15.05;13.60;;;;;;;-141.84;74.83;21114.75;5038188;28;20229;-59
2023/08/19 06:13:52;;;;;;;15.32;13.32;;;;;;;-141.84;75.42;21122.91;5042780;28;20210;-59
2023/08/19 06:16:22;;;;;;;15.30;13.77;;;;;;;-141.84;75.35;21126.97;5041669;28;20236;-60
2023/08/19 06:18:51;;;;;;;14.93;13.52;;;;;;;-141.84;75.89;21114.75;5042124;28;20320;-60
2023/08/19 06:21:19;;;;;;;14.95;13.55;;;;;;;-141.84;76.00;21131.03;5042031;28;20260;-61
2023/08/19 06:23:48;;;;;;;15.52;13.98;;;;;;;-141.84;75.20;21163.56;5035276;28;20237;-59
2023/08/19 06:26:16;;;;;;;14.90;13.13;;;;;;;-141.84;74.38;21206.25;5041879;28;23055;-59
2023/08/19 06:28:44;;;;;;;14.20;12.93;;;;;;;-141.84;74.52;21200.16;5042106;28;20215;-61
2023/08/19 06:31:13;;;;;;;14.60;13.20;;;;;;;-141.84;74.36;21212.34;5041342;28;20715;-61
2023/08/19 06:33:44;;;;;;;15.15;13.57;;;;;;;-141.84;73.11;21238.78;5034260;28;20241;-60
2023/08/19 06:36:15;;;;;;;14.07;12.77;;;;;;;-141.84;73.56;21271.31;5041912;28;20240;-61
2023/08/19 06:38:49;;;;;;;13.32;12.13;;;;;;;-141.84;74.27;21261.16;5041615;28;20651;-60
2023/08/19 06:41:19;;;;;;;14.13;12.88;;;;;;;-141.84;74.07;21267.25;5041779;28;20749;-60
2023/08/19 06:43:50;;;;;;;14.60;13.30;;;;;;;-141.84;73.37;21281.47;5035737;28;20229;-61
2023/08/19 06:46:20;;;;;;;14.02;12.77;;;;;;;-141.84;73.54;21295.72;5032340;28;20237;-60
2023/08/19 06:48:51;;;;;;;14.57;13.18;;;;;;;-141.84;74.25;21285.53;5041860;28;20261;-59
2023/08/19 06:51:20;;;;;;;15.57;14.18;;;;;;;-141.84;73.65;21295.72;5041481;28;20247;-61
2023/08/19 06:53:49;;;;;;;15.07;13.57;;;;;;;-141.84;73.41;21289.59;5050049;28;20236;-60
2023/08/19 06:56:25;;;;;;;13.55;12.32;;;;;;;-141.84;73.95;21326.22;5047091;28;20662;-61
2023/08/19 06:58:59;;;;;;;13.90;12.60;;;;;;;-141.84;74.16;21314.00;5041760;28;20205;-61
2023/08/19 07:01:31;;;;;;;13.02;11.95;;;;;;;-141.84;74.12;21297.75;5036441;28;20645;-60
2023/08/19 07:04:03;;;;;;;13.88;12.57;;;;;;;-141.84;74.17;21316.03;5044579;28;20319;-61
2023/08/19 07:06:32;;;;;;;13.68;12.32;;;;;;;-141.84;74.28;21332.31;5062631;28;20324;-61
2023/08/19 07:09:05;;;;;;;14.30;12.90;;;;;;;-141.84;74.45;21311.97;5036218;28;20271;-60
2023/08/19 07:11:37;;;;;;;14.75;13.45;;;;;;;-141.84;73.80;21375.00;5036622;28;20312;-59
2023/08/19 07:14:06;;;;;;;14.27;12.98;;;;;;;-141.84;73.37;21391.28;5044517;28;20224;-60
2023/08/19 07:16:35;;;;;;;13.98;12.68;;;;;;;-141.84;73.58;21372.97;5045369;28;20691;-60
2023/08/19 07:19:12;;;;;;;13.93;12.52;;;;;;;-141.84;73.50;21395.34;5044692;28;20233;-61
2023/08/19 07:21:42;;;;;;;14.13;12.68;;;;;;;-141.84;72.19;21415.66;5036849;28;20261;-61
2023/08/19 07:24:11;;;;;;;14.27;12.98;;;;;;;-141.84;72.80;21442.09;5044735;28;20236;-60
2023/08/19 07:26:41;;;;;;;13.95;12.75;;;;;;;-141.84;72.89;21436.00;5044780;28;20229;-60
2023/08/19 07:29:10;;;;;;;14.35;12.98;;;;;;;-141.84;72.39;21440.06;5044679;28;20205;-60
2023/08/19 07:31:40;;;;;;;13.57;12.32;;;;;;;-141.84;72.30;21470.56;5036928;28;20225;-60
2023/08/19 07:34:10;;;;;;;12.60;11.50;;;;;;;-141.84;72.21;21456.34;5044857;28;20237;-61
2023/08/19 07:36:38;;;;;;;14.00;12.60;;;;;;;-141.84;71.28;21488.88;5044440;28;21515;-60
2023/08/19 07:39:07;;;;;;;13.20;12.10;;;;;;;-141.84;70.96;21545.78;5044654;28;20235;-61
2023/08/19 07:41:35;;;;;;;13.50;12.23;;;;;;;-141.84;70.28;21570.19;5036712;28;20235;-61
2023/08/19 07:44:04;;;;;;;12.77;11.65;;;;;;;-141.84;70.63;21598.66;5044277;28;20230;-60
2023/08/19 07:46:33;;;;;;;13.23;11.98;;;;;;;-141.84;69.83;21623.06;5044710;28;20207;-60
2023/08/19 07:49:01;;;;;;;12.63;11.52;;;;;;;-141.84;69.59;21629.16;5048854;28;20229;-60
2023/08/19 07:51:31;;;;;;;13.02;11.90;;;;;;;-141.84;69.11;21649.50;5056643;28;20232;-60
2023/08/19 07:54:00;;;;;;;12.77;11.48;;;;;;;-141.84;68.86;21684.06;5064122;28;20329;-60
2023/08/19 07:56:28;;;;;;;11.88;10.82;;;;;;;-141.84;68.84;21708.47;5064573;28;20224;-60
2023/08/19 07:58:57;;;;;;;12.70;11.55;;;;;;;-141.84;68.49;21698.28;5064284;28;20223;-61
2023/08/19 08:01:25;;;;;;;12.70;11.60;;;;;;;-141.84;68.61;21700.31;5053645;28;20285;-59
2023/08/19 08:03:54;;;;;;;13.00;11.73;;;;;;;-141.84;68.98;21696.25;5044172;28;20260;-59
2023/08/19 08:06:22;;;;;;;12.38;11.38;;;;;;;-141.84;68.66;21712.53;5044211;28;20225;-60
2023/08/19 08:08:53;;;;;;;11.43;10.52;;;;;;;-141.84;68.78;21745.06;5043257;28;20360;-60
2023/08/19 08:11:21;;;;;;;11.70;10.68;;;;;;;-141.84;68.40;21769.47;5043588;28;20232;-61
2023/08/19 08:13:49;;;;;;;12.55;11.27;;;;;;;-141.84;68.01;21799.97;5040816;28;20232;-59
2023/08/19 08:16:18;;;;;;;11.70;10.73;;;;;;;-141.84;67.08;21850.78;5043824;28;20241;-59
2023/08/19 08:18:46;;;;;;;12.27;10.98;;;;;;;-141.84;67.19;21856.91;5043654;28;20631;-59
2023/08/19 08:21:15;;;;;;;12.27;11.27;;;;;;;-141.84;66.86;21871.13;5043961;28;20302;-61
2023/08/19 08:23:43;;;;;;;12.23;11.02;;;;;;;-141.84;66.52;21907.72;5036348;28;20279;-60
2023/08/19 08:26:13;;;;;;;12.13;11.02;;;;;;;-141.84;66.63;21950.44;5043894;28;20205;-60
2023/08/19 08:28:42;;;;;;;12.20;11.10;;;;;;;-141.84;66.40;21980.94;5044274;28;20206;-61
2023/08/19 08:31:10;;;;;;;11.77;10.73;;;;;;;-141.84;66.20;21991.09;5043527;28;20653;-60
2023/08/19 08:33:39;;;;;;;11.63;10.45;;;;;;;-141.84;64.36;22092.78;5035278;28;20221;-59
2023/08/19 08:36:08;;;;;;;11.80;10.80;;;;;;;-141.84;64.79;22098.88;5043664;28;20699;-60
2023/08/19 08:38:36;;;;;;;12.52;11.43;;;;;;;-141.84;65.36;22127.34;5043329;28;20639;-60
2023/08/19 08:41:07;;;;;;;11.98;10.88;;;;;;;-141.84;64.97;22155.81;5043654;28;20205;-60
2023/08/19 08:43:40;;;;;;;11.63;10.45;;;;;;;-141.84;64.01;22159.88;5036213;28;20320;-60
2023/08/19 08:46:09;;;;;;;12.20;10.93;;;;;;;-141.84;63.22;22200.56;5046074;28;20320;-60
2023/08/19 08:48:38;;;;;;;10.80;9.73;;;;;;;-141.84;63.09;22200.56;5043660;28;20236;-61
2023/08/19 08:51:06;;;;;;;10.48;9.52;;;;;;;-141.84;63.26;22208.69;5043604;28;20320;-59
2023/08/19 08:53:36;;;;;;;9.88;9.07;;;;;;;-141.84;62.58;22279.88;5035334;28;20308;-60
2023/08/19 08:56:06;;;;;;;9.90;9.07;;;;;;;-141.84;62.28;22306.31;5063119;28;20657;-60
2023/08/19 08:58:36;;;;;;;10.48;9.48;;;;;;;-141.84;61.79;22365.28;5063590;28;20592;-60
2023/08/19 09:01:05;;;;;;;8.20;7.57;;;;;;;-141.84;60.14;22401.88;5062670;28;20224;-59
2023/08/19 09:03:35;;;;;;;7.72;7.13;;;;;;;-141.84;59.41;22446.63;5035222;28;20308;-60
2023/08/19 09:06:11;;;;;;;8.15;7.45;;;;;;;-141.84;58.28;22495.44;5043053;28;20224;-61
2023/08/19 09:08:47;;;;;;;7.88;7.18;;;;;;;-141.84;57.74;22536.13;5042894;28;20223;-60
2023/08/19 09:11:21;;;;;;;7.25;6.65;;;;;;;-141.84;57.55;22566.63;5042556;28;20209;-59
2023/08/19 09:13:55;;;;;;;7.43;6.82;;;;;;;-141.84;57.53;22582.91;5042504;28;20267;-60
2023/08/19 09:16:24;;;;;;;8.40;7.65;;;;;;;-141.84;58.51;22578.81;5043150;28;20510;-61
2023/08/19 09:18:53;;;;;;;8.80;7.93;;;;;;;-141.84;59.60;22560.53;5042637;28;20660;-59
2023/08/19 09:21:21;;;;;;;7.47;6.93;;;;;;;-141.84;59.29;22607.31;5042289;28;20282;-61
2023/08/19 09:23:50;;;;;;;8.18;7.53;;;;;;;-141.84;58.35;22619.50;5041811;28;20229;-61
2023/08/19 09:26:19;;;;;;;7.78;7.07;;;;;;;-141.84;58.52;22684.59;5042859;28;20229;-60
2023/08/19 09:28:47;;;;;;;8.15;7.55;;;;;;;-141.84;58.58;22696.78;5042767;28;20680;-62
2023/08/19 09:31:22;;;;;;;7.95;7.35;;;;;;;-141.84;58.76;22723.22;5042098;28;20605;-60
2023/08/19 09:33:52;;;;;;;8.25;7.55;;;;;;;-141.84;57.14;22774.06;5042051;28;20227;-61
2023/08/19 09:36:24;;;;;;;7.35;6.65;;;;;;;-141.84;55.90;22826.97;5042136;28;20225;-60
2023/08/19 09:38:56;;;;;;;7.57;6.88;;;;;;;-141.84;55.85;22831.03;5033778;28;20253;-60
2023/08/19 09:41:27;;;;;;;7.80;7.10;;;;;;;-141.84;56.08;22826.97;5018978;28;20286;-62
2023/08/19 09:43:56;;;;;;;7.28;6.63;;;;;;;-141.84;56.49;22833.06;5042798;28;20257;-60
2023/08/19 09:46:32;;;;;;;6.55;6.05;;;;;;;-141.84;56.63;22843.22;5050783;28;20232;-59
2023/08/19 09:49:03;;;;;;;6.53;6.00;;;;;;;-141.84;55.02;22944.94;5042180;28;20236;-60
2023/08/19 09:51:32;;;;;;;5.50;5.10;;;;;;;-141.84;54.49;22940.84;5034454;28;20707;-61
2023/08/19 09:54:10;;;;;;;5.25;4.85;;;;;;;-141.84;53.62;23038.50;5041567;28;20777;-60
2023/08/19 09:56:38;;;;;;;6.60;6.00;;;;;;;-141.84;52.96;23054.75;5042426;28;20274;-59
2023/08/19 09:59:07;;;;;;;5.25;4.85;;;;;;;-141.84;52.47;23071.03;5041866;28;20300;-61
2023/08/19 10:01:37;;;;;;;5.50;5.10;;;;;;;-141.84;52.32;23050.69;5035143;28;20615;-61
2023/08/19 10:04:06;;;;;;;6.05;5.55;;;;;;;-141.84;53.51;23038.50;5041771;28;20605;-60
2023/08/19 10:06:40;;;;;;;6.68;5.68;;;;;;;-141.84;53.32;23042.56;5042168;28;20579;-60
2023/08/19 10:09:11;;;;;;;5.43;5.03;;;;;;;-141.84;52.66;23073.06;5042112;28;20303;-60
2023/08/19 10:11:44;;;;;;;6.25;5.68;;;;;;;-141.84;52.89;23071.03;5028347;28;20316;-60
2023/08/19 10:14:14;;;;;;;5.55;5.15;;;;;;;-141.84;53.15;23125.97;5024495;28;20232;-60
2023/08/19 10:16:48;;;;;;;5.70;5.30;;;;;;;-141.84;52.37;23203.25;5042518;28;20213;-60
2023/08/19 10:19:22;;;;;;;5.60;5.20;;;;;;;-141.84;51.93;23235.81;5041902;28;20655;-60
2023/08/19 10:21:53;;;;;;;5.80;5.30;;;;;;;-141.84;52.05;23221.56;5039060;28;20553;-60
2023/08/19 10:24:22;;;;;;;5.63;5.13;;;;;;;-141.84;51.61;23270.38;5041837;28;20232;-61
2023/08/19 10:26:51;;;;;;;5.20;4.80;;;;;;;-141.84;51.35;23278.50;5041583;28;20534;-60
2023/08/19 10:29:20;;;;;;;5.30;4.90;;;;;;;-141.84;49.75;23366.00;5041897;28;20229;-60
2023/08/19 10:31:50;;;;;;;5.28;4.80;;;;;;;-141.84;49.71;23390.41;5036896;28;20303;-60
2023/08/19 10:34:26;;;;;;;6.13;5.05;;;;;;;-141.84;49.31;23435.16;5045934;28;20228;-61
2023/08/19 10:37:07;;;;;;;5.78;5.28;;;;;;;-141.84;49.57;23378.19;5045714;28;20669;-61
2023/08/19 10:39:37;;;;;;;6.53;6.00;;;;;;;-141.84;51.14;23400.56;5057909;28;20311;-60
2023/08/19 10:42:06;;;;;;;6.07;5.50;;;;;;;-141.84;50.41;23349.72;5065700;28;20224;-61
2023/08/19 10:44:34;;;;;;;6.18;5.68;;;;;;;-141.84;50.83;23402.59;5065436;28;20648;-61
2023/08/19 10:47:13;;;;;;;7.68;6.38;;;;;;;-141.84;50.24;23418.88;5048513;28;20237;-61
2023/08/19 10:49:43;;;;;;;7.00;6.40;;;;;;;-141.84;50.66;23433.13;5038559;28;20776;-60
2023/08/19 10:52:21;;;;;;;6.68;6.18;;;;;;;-141.84;51.61;23427.00;5045206;28;20256;-61
2023/08/19 10:54:49;;;;;;;7.38;6.55;;;;;;;-141.84;51.21;23418.88;5054739;28;20315;-62
2023/08/19 10:57:22;;;;;;;7.43;6.70;;;;;;;-141.84;50.87;23479.91;5065243;28;20256;-61
2023/08/19 10:59:56;;;;;;;7.88;7.25;;;;;;;-141.84;50.81;23486.00;5063277;28;20281;-60
2023/08/19 11:02:26;;;;;;;8.02;6.60;;;;;;;-141.84;50.50;23522.63;5053720;28;20662;-60
2023/08/19 11:04:58;;;;;;;7.70;7.07;;;;;;;-141.84;49.61;23526.69;5045692;28;20292;-60
2023/08/19 11:07:27;;;;;;;7.50;6.85;;;;;;;-141.84;49.85;23577.56;5017670;28;20233;-61
2023/08/19 11:09:55;;;;;;;7.13;6.53;;;;;;;-141.84;49.77;23553.13;5026299;28;20814;-61
2023/08/19 11:12:26;;;;;;;6.70;6.10;;;;;;;-141.84;49.14;23632.47;5017745;28;20610;-60